Time;durP1;ratioP1;P1;durP2;ratioP2;P2;SDS_P1;SDS_P2;PMS_P1;PMS_P2;Temp;Humidity;BMP_temperature;BMP_pressure;BME280_temperature;BME280_humidity;BME280_pressure;Samples;Min_cycle;Max_cycle;Signal;HPM_P1;HPM_P2
2022/08/02 00:00:16;;;;;;;2.10;1.43;;;19.40;99.90;;;;;;4933030;29;20181;-73
2022/08/02 00:02:42;;;;;;;3.33;1.80;;;19.40;99.90;;;;;;4932636;29;20221;-71
2022/08/02 00:05:08;;;;;;;2.57;2.30;;;19.40;99.90;;;;;;4933655;29;20552;-72
2022/08/02 00:07:34;;;;;;;2.40;2.20;;;19.40;99.90;;;;;;4933419;29;20484;-71
2022/08/02 00:09:59;;;;;;;2.30;2.20;;;19.30;99.90;;;;;;4933328;29;20428;-71
2022/08/02 00:12:25;;;;;;;2.03;1.83;;;19.30;99.90;;;;;;4931984;29;20206;-72
2022/08/02 00:14:51;;;;;;;4.63;2.40;;;19.20;99.90;;;;;;4933675;29;20174;-71
2022/08/02 00:17:16;;;;;;;2.10;1.90;;;19.30;99.90;;;;;;4931917;29;20593;-72
2022/08/02 00:19:42;;;;;;;2.53;2.33;;;19.30;99.90;;;;;;4933353;29;20619;-71
2022/08/02 00:22:08;;;;;;;2.60;2.40;;;19.20;99.90;;;;;;4932324;29;20201;-72
2022/08/02 00:24:33;;;;;;;3.03;2.37;;;19.20;99.90;;;;;;4933149;29;20686;-73
2022/08/02 00:26:59;;;;;;;3.37;2.40;;;19.10;99.90;;;;;;4932977;29;20205;-72
2022/08/02 00:29:24;;;;;;;2.00;1.90;;;19.20;99.90;;;;;;4933566;29;20507;-72
2022/08/02 00:31:50;;;;;;;2.93;2.80;;;19.30;99.90;;;;;;4932364;29;20235;-72
2022/08/02 00:34:15;;;;;;;2.80;2.30;;;19.30;99.90;;;;;;4933102;29;20205;-72
2022/08/02 00:36:41;;;;;;;3.10;2.30;;;19.20;99.90;;;;;;4932575;29;20582;-72
2022/08/02 00:39:06;;;;;;;2.37;2.17;;;19.20;99.90;;;;;;4935368;29;20169;-72
2022/08/02 00:41:32;;;;;;;2.63;2.43;;;19.10;99.90;;;;;;4936282;29;20197;-72
2022/08/02 00:43:57;;;;;;;2.63;2.10;;;19.10;99.90;;;;;;4937269;29;20173;-73
2022/08/02 00:46:23;;;;;;;2.00;1.80;;;19.10;99.90;;;;;;4936834;29;20208;-71
2022/08/02 00:48:48;;;;;;;2.37;2.20;;;19.00;99.90;;;;;;4936595;29;20203;-73
2022/08/02 00:51:15;;;;;;;2.37;2.27;;;19.00;99.90;;;;;;4935863;29;20685;-71
2022/08/02 00:53:41;;;;;;;3.00;2.70;;;18.90;99.90;;;;;;4935776;29;20177;-71
2022/08/02 00:56:07;;;;;;;2.30;2.20;;;18.90;99.90;;;;;;4937006;29;20445;-73
2022/08/02 00:58:33;;;;;;;1.90;1.80;;;18.90;99.90;;;;;;4936879;29;20453;-72
2022/08/02 02:32:58;;;;;;;2.03;1.93;;;18.20;99.90;;;;;;5078312;23;20509;-73
2022/08/02 02:35:28;;;;;;;2.80;1.70;;;18.20;99.90;;;;;;4925494;29;20452;-73
2022/08/02 02:37:55;;;;;;;2.20;2.10;;;18.20;99.90;;;;;;4935003;29;20449;-73
2022/08/02 02:40:23;;;;;;;2.13;2.03;;;18.20;99.90;;;;;;4934903;29;20417;-70
2022/08/02 02:42:50;;;;;;;1.80;1.70;;;18.20;99.90;;;;;;4933698;29;20500;-72
2022/08/02 02:45:17;;;;;;;2.30;1.93;;;18.20;99.90;;;;;;4934770;29;20477;-73
2022/08/02 02:47:43;;;;;;;2.87;2.03;;;18.20;99.90;;;;;;4934846;29;20413;-72
2022/08/02 02:50:10;;;;;;;13.00;2.13;;;18.10;99.90;;;;;;4934493;29;20431;-73
2022/08/02 02:52:38;;;;;;;2.73;2.20;;;18.10;99.90;;;;;;4934168;29;20575;-73
2022/08/02 02:55:05;;;;;;;1.97;1.73;;;18.10;99.90;;;;;;4934512;29;20413;-73
2022/08/02 02:57:31;;;;;;;2.47;2.23;;;18.10;99.90;;;;;;4934363;29;20413;-73
2022/08/02 02:59:58;;;;;;;3.17;2.80;;;18.10;99.90;;;;;;4934471;29;20925;-72
2022/08/02 03:02:23;;;;;;;4.17;2.97;;;18.10;99.90;;;;;;4932739;29;20441;-72
2022/08/02 03:04:50;;;;;;;2.03;1.93;;;18.10;99.90;;;;;;4934446;29;20867;-72
2022/08/02 03:07:16;;;;;;;2.57;2.03;;;18.10;99.90;;;;;;4934423;29;20169;-72
2022/08/02 03:09:42;;;;;;;2.97;2.63;;;18.10;99.90;;;;;;4934427;29;20405;-72
2022/08/02 03:12:09;;;;;;;2.43;2.23;;;18.00;99.90;;;;;;4931538;29;20197;-72
2022/08/02 03:14:42;;;;;;;4.50;2.13;;;18.00;99.90;;;;;;4933113;29;20184;-72
2022/08/02 03:17:08;;;;;;;2.70;2.43;;;18.00;99.90;;;;;;4934063;29;20941;-72
2022/08/02 03:19:33;;;;;;;8.37;2.27;;;18.00;99.90;;;;;;4934406;29;20417;-72
2022/08/02 03:21:59;;;;;;;2.73;2.40;;;17.90;99.90;;;;;;4933165;29;20208;-72
2022/08/02 03:24:24;;;;;;;2.97;2.37;;;17.80;99.90;;;;;;4933898;29;20180;-72
2022/08/02 03:26:50;;;;;;;2.60;2.40;;;17.80;99.90;;;;;;4934224;29;20210;-72
2022/08/02 03:29:15;;;;;;;2.30;2.20;;;17.70;99.90;;;;;;4934080;29;20185;-73
2022/08/02 03:31:44;;;;;;;6.40;2.87;;;17.70;99.90;;;;;;4932883;29;20209;-71
2022/08/02 03:34:10;;;;;;;2.23;2.13;;;17.70;99.90;;;;;;4933801;29;20225;-72
2022/08/02 03:36:36;;;;;;;2.87;2.60;;;17.70;99.90;;;;;;4934159;29;20468;-73
2022/08/02 03:39:04;;;;;;;2.73;2.47;;;17.60;99.90;;;;;;4933256;29;20186;-73
2022/08/02 03:41:30;;;;;;;3.47;2.60;;;17.60;99.90;;;;;;4933075;29;20441;-73
2022/08/02 03:43:57;;;;;;;2.83;2.40;;;17.60;99.90;;;;;;4933904;29;20427;-72
2022/08/02 03:46:24;;;;;;;3.40;1.90;;;17.50;99.90;;;;;;4933557;29;20468;-73
2022/08/02 03:48:50;;;;;;;4.47;2.73;;;17.50;99.90;;;;;;4933855;29;20414;-73
2022/08/02 03:51:17;;;;;;;2.80;2.60;;;17.50;99.90;;;;;;4932063;29;20436;-70
2022/08/02 03:53:43;;;;;;;3.47;2.77;;;17.40;99.90;;;;;;4933915;29;20409;-73
2022/08/02 03:56:09;;;;;;;3.00;2.07;;;17.40;99.90;;;;;;4933501;29;20417;-72
2022/08/02 03:58:35;;;;;;;2.30;2.20;;;17.40;99.90;;;;;;4933785;29;20516;-72
2022/08/02 04:01:00;;;;;;;4.50;2.00;;;17.40;99.90;;;;;;4932250;29;20524;-70
2022/08/02 04:03:26;;;;;;;3.07;2.80;;;17.30;99.90;;;;;;4935260;29;20197;-73
2022/08/02 04:05:52;;;;;;;1.97;1.87;;;17.30;99.90;;;;;;4933738;29;20208;-73
2022/08/02 04:08:18;;;;;;;3.10;2.63;;;17.30;99.90;;;;;;4934146;29;20224;-73
2022/08/02 04:13:31;;;;;;;3.30;3.00;;;17.30;99.90;;;;;;4933322;29;20479;-72
2022/08/02 04:16:02;;;;;;;4.40;2.57;;;17.30;99.90;;;;;;4933236;29;20899;-72
2022/08/02 04:18:36;;;;;;;2.77;2.57;;;17.30;99.90;;;;;;4933651;29;20422;-73
2022/08/02 04:21:04;;;;;;;5.13;2.87;;;17.20;99.90;;;;;;4932281;29;20433;-71
2022/08/02 04:23:31;;;;;;;3.30;2.30;;;17.20;99.90;;;;;;4933032;29;20512;-72
2022/08/02 04:25:59;;;;;;;4.37;2.73;;;17.30;99.90;;;;;;4933141;29;20467;-72
2022/08/02 04:28:25;;;;;;;2.80;2.60;;;17.30;99.90;;;;;;4933286;29;20417;-72
2022/08/02 04:30:51;;;;;;;3.60;2.53;;;17.30;99.90;;;;;;4931787;29;20424;-72
2022/08/02 04:33:17;;;;;;;3.27;2.80;;;17.30;99.90;;;;;;4931443;29;20953;-72
2022/08/02 04:35:43;;;;;;;2.73;2.53;;;17.40;99.90;;;;;;4930946;29;20260;-70
2022/08/02 04:38:11;;;;;;;2.50;2.40;;;17.40;99.90;;;;;;4932887;29;20416;-72
2022/08/02 04:40:37;;;;;;;4.20;2.70;;;17.40;99.90;;;;;;4931962;29;20421;-71
2022/08/02 04:43:03;;;;;;;2.67;2.47;;;17.40;99.90;;;;;;4931432;29;20434;-71
2022/08/02 04:45:29;;;;;;;9.03;2.77;;;17.50;99.90;;;;;;4933168;29;20916;-72
2022/08/02 04:47:55;;;;;;;2.90;2.67;;;17.50;99.90;;;;;;4933252;29;20614;-72
2022/08/02 04:50:20;;;;;;;3.07;2.87;;;17.60;99.90;;;;;;4932440;29;20457;-73
2022/08/02 04:52:46;;;;;;;4.80;2.97;;;17.60;99.90;;;;;;4932264;29;20197;-72
2022/08/02 04:55:11;;;;;;;3.40;3.10;;;17.60;99.90;;;;;;4932837;29;20181;-72
2022/08/02 04:57:56;;;;;;;4.20;3.90;;;17.70;99.90;;;;;;4933136;29;20236;-72
2022/08/02 05:00:23;;;;;;;4.07;3.50;;;17.70;99.90;;;;;;4932164;29;20184;-69
2022/08/02 05:02:49;;;;;;;2.90;2.63;;;17.90;99.90;;;;;;4932290;29;20502;-70
2022/08/02 05:05:15;;;;;;;2.77;2.57;;;17.90;99.90;;;;;;4932670;29;20449;-72
2022/08/02 05:07:41;;;;;;;3.13;2.87;;;18.00;99.90;;;;;;4932944;29;20428;-73
2022/08/02 05:10:07;;;;;;;2.83;2.63;;;18.10;99.90;;;;;;4928098;29;20453;-72
2022/08/02 05:12:32;;;;;;;2.50;2.33;;;18.20;99.90;;;;;;4926173;29;20212;-73
2022/08/02 05:14:58;;;;;;;4.77;3.80;;;18.30;99.90;;;;;;4930784;29;20189;-72
2022/08/02 05:17:23;;;;;;;3.23;2.70;;;18.40;99.90;;;;;;4931692;29;20646;-72
2022/08/02 05:19:49;;;;;;;3.50;3.23;;;18.60;99.90;;;;;;4932232;29;20188;-72
2022/08/02 05:22:14;;;;;;;3.33;2.60;;;18.80;99.90;;;;;;4931420;29;20265;-73
2022/08/02 05:24:40;;;;;;;4.80;2.23;;;19.10;99.90;;;;;;4931589;29;20174;-73
2022/08/02 05:27:05;;;;;;;5.17;2.47;;;19.50;99.90;;;;;;4935073;29;20537;-73
2022/08/02 05:29:31;;;;;;;2.63;2.50;;;20.00;99.90;;;;;;4936183;29;20181;-73
2022/08/02 05:31:56;;;;;;;2.60;2.27;;;20.50;99.90;;;;;;4934690;29;20280;-73
2022/08/02 05:34:22;;;;;;;4.50;2.90;;;20.90;99.90;;;;;;4935099;29;20181;-72
2022/08/02 05:36:47;;;;;;;3.00;2.53;;;21.10;99.90;;;;;;4935585;29;20182;-73
2022/08/02 05:39:13;;;;;;;6.67;2.30;;;21.20;99.90;;;;;;4935739;29;20184;-72
2022/08/02 05:41:38;;;;;;;2.90;2.70;;;21.20;99.90;;;;;;4935632;29;20216;-72
2022/08/02 05:44:04;;;;;;;13.97;2.77;;;21.30;99.90;;;;;;4935648;29;20178;-72
2022/08/02 05:46:30;;;;;;;4.10;2.80;;;21.60;99.90;;;;;;4936052;29;20217;-74
2022/08/02 05:48:55;;;;;;;9.40;3.00;;;22.00;99.90;;;;;;4935796;29;20300;-73
2022/08/02 05:51:22;;;;;;;2.80;2.60;;;22.60;99.90;;;;;;4935082;29;20678;-71
2022/08/02 05:54:04;;;;;;;2.80;2.00;;;23.10;99.90;;;;;;4936385;29;20183;-73
2022/08/02 05:56:41;;;;;;;2.50;2.20;;;23.40;99.90;;;;;;4936012;29;20409;-73
2022/08/02 05:59:31;;;;;;;7.03;3.27;;;23.50;99.90;;;;;;4936153;29;20507;-74
2022/08/02 06:02:02;;;;;;;5.80;2.53;;;23.20;99.90;;;;;;4933973;29;20979;-73
2022/08/02 06:04:42;;;;;;;5.03;2.60;;;22.90;99.90;;;;;;4919291;29;20424;-73
2022/08/02 06:07:09;;;;;;;3.10;2.80;;;22.90;99.90;;;;;;4916585;29;20414;-73
2022/08/02 06:09:37;;;;;;;3.50;2.70;;;23.20;99.90;;;;;;4916891;29;20517;-73
2022/08/02 06:12:04;;;;;;;2.20;2.10;;;23.40;99.90;;;;;;4914749;29;20448;-71
2022/08/02 06:14:32;;;;;;;4.40;2.60;;;23.70;99.90;;;;;;4916739;29;20814;-72
2022/08/02 06:17:05;;;;;;;3.50;2.67;;;23.70;99.90;;;;;;4916216;29;20410;-72
2022/08/02 06:19:31;;;;;;;2.67;2.23;;;23.50;99.90;;;;;;4916656;29;20425;-72
2022/08/02 06:22:13;;;;;;;2.87;2.37;;;23.70;99.90;;;;;;4915958;29;20430;-73
2022/08/02 06:24:48;;;;;;;2.30;2.20;;;23.90;99.90;;;;;;4916057;29;20851;-72
2022/08/02 06:27:14;;;;;;;3.00;2.10;;;24.30;99.90;;;;;;4916286;29;20473;-72
2022/08/02 06:29:42;;;;;;;2.00;1.77;;;24.60;99.90;;;;;;4916512;29;20433;-73
2022/08/02 06:32:08;;;;;;;2.90;2.33;;;24.90;99.90;;;;;;4915291;29;20536;-72
2022/08/02 06:34:39;;;;;;;2.90;1.80;;;25.00;99.90;;;;;;4916015;29;20935;-73
2022/08/02 06:37:21;;;;;;;2.07;1.97;;;25.10;99.90;;;;;;4915574;29;20413;-74
2022/08/02 06:39:57;;;;;;;4.20;2.50;;;25.30;99.90;;;;;;4916324;29;20504;-73
2022/08/02 06:42:42;;;;;;;6.03;2.10;;;25.50;99.90;;;;;;4915432;29;20497;-71
2022/08/02 06:45:08;;;;;;;3.40;1.83;;;25.70;99.90;;;;;;4915754;29;20458;-72
2022/08/02 06:47:33;;;;;;;4.40;2.23;;;25.80;99.90;;;;;;4916235;29;20937;-74
2022/08/02 06:49:59;;;;;;;2.30;2.10;;;26.00;99.90;;;;;;4915853;29;20421;-73
2022/08/02 06:52:26;;;;;;;3.93;2.20;;;26.20;99.90;;;;;;4915013;29;20190;-73
2022/08/02 06:54:52;;;;;;;1.97;1.87;;;26.20;99.90;;;;;;4915878;29;20178;-74
2022/08/02 06:57:17;;;;;;;5.10;2.77;;;26.00;99.90;;;;;;4914455;29;20615;-73
2022/08/02 06:59:43;;;;;;;3.67;2.60;;;26.20;99.90;;;;;;4915802;29;20210;-73
2022/08/02 07:02:10;;;;;;;2.93;2.30;;;26.30;99.90;;;;;;4914678;29;20198;-73
2022/08/02 07:04:36;;;;;;;4.03;2.70;;;26.50;99.90;;;;;;4915170;29;20550;-73
2022/08/02 07:07:02;;;;;;;4.23;2.70;;;26.70;99.90;;;;;;4914633;29;20451;-71
2022/08/02 07:09:27;;;;;;;4.83;2.63;;;27.00;99.90;;;;;;4915378;29;20178;-73
2022/08/02 07:11:53;;;;;;;4.27;2.80;;;27.30;99.90;;;;;;4914053;29;20279;-73
2022/08/02 07:14:19;;;;;;;3.07;2.77;;;27.40;99.90;;;;;;4915526;29;20259;-73
2022/08/02 07:16:44;;;;;;;5.70;2.77;;;27.40;99.90;;;;;;4915312;29;20531;-73
2022/08/02 07:19:10;;;;;;;5.33;3.10;;;27.40;99.90;;;;;;4915282;29;20702;-73
2022/08/02 07:21:35;;;;;;;4.47;3.47;;;27.50;99.90;;;;;;4914518;29;20709;-73
2022/08/02 07:24:01;;;;;;;4.70;3.20;;;27.70;99.90;;;;;;4914896;29;20269;-71
2022/08/02 07:26:26;;;;;;;3.40;3.10;;;27.90;99.90;;;;;;4915082;29;20356;-72
2022/08/02 07:28:53;;;;;;;3.00;2.67;;;27.90;99.90;;;;;;4915406;29;20549;-73
2022/08/02 07:31:19;;;;;;;4.40;3.33;;;27.60;99.90;;;;;;4914251;29;20234;-73
2022/08/02 07:33:45;;;;;;;6.30;3.70;;;27.50;99.90;;;;;;4915080;29;20452;-73
2022/08/02 07:36:10;;;;;;;3.00;2.80;;;27.60;99.90;;;;;;4914834;29;20674;-73
2022/08/02 07:38:36;;;;;;;5.10;3.60;;;27.80;99.90;;;;;;4914658;29;20182;-72
2022/08/02 07:41:01;;;;;;;7.10;3.07;;;28.10;99.90;;;;;;4913946;29;20285;-71
2022/08/02 07:43:27;;;;;;;2.97;2.77;;;28.30;99.90;;;;;;4914648;29;20317;-73
2022/08/02 07:45:52;;;;;;;5.87;3.17;;;28.30;99.90;;;;;;4914960;29;20213;-73
2022/08/02 07:48:18;;;;;;;4.30;2.87;;;28.10;99.90;;;;;;4914084;29;20318;-73
2022/08/02 07:50:45;;;;;;;3.60;2.40;;;28.20;99.90;;;;;;4913719;29;20253;-72
2022/08/02 07:53:11;;;;;;;4.50;3.23;;;28.40;99.90;;;;;;4914513;29;20261;-73
2022/08/02 07:55:36;;;;;;;5.03;3.47;;;28.70;99.90;;;;;;4914936;29;20570;-73
2022/08/02 07:58:03;;;;;;;3.40;3.20;;;28.60;99.90;;;;;;4914532;29;20182;-70
2022/08/02 08:00:29;;;;;;;3.40;3.20;;;28.60;99.90;;;;;;4914524;29;20200;-74
2022/08/02 08:02:54;;;;;;;4.60;4.20;;;28.70;99.90;;;;;;4913940;29;20434;-74
2022/08/02 08:05:20;;;;;;;5.30;3.27;;;28.80;99.90;;;;;;4914383;29;21562;-73
2022/08/02 08:07:46;;;;;;;6.93;3.43;;;28.80;99.90;;;;;;4914760;29;20522;-73
2022/08/02 08:10:11;;;;;;;3.37;2.63;;;29.00;99.90;;;;;;4914360;29;20186;-73
2022/08/02 08:12:37;;;;;;;5.20;4.37;;;29.40;99.90;;;;;;4913757;29;20657;-73
2022/08/02 08:15:03;;;;;;;3.23;3.03;;;29.50;99.90;;;;;;4914306;29;20189;-69
2022/08/02 08:17:28;;;;;;;6.10;3.70;;;29.80;99.90;;;;;;4913998;29;20190;-71
2022/08/02 08:19:54;;;;;;;3.17;2.97;;;30.10;99.90;;;;;;4914522;29;20845;-71
2022/08/02 08:22:20;;;;;;;4.47;4.03;;;30.00;99.90;;;;;;4913253;29;20675;-71
2022/08/02 08:24:46;;;;;;;3.43;3.07;;;30.10;99.90;;;;;;4914486;29;20237;-71
2022/08/02 08:27:14;;;;;;;6.43;3.50;;;30.00;99.90;;;;;;4914206;29;20512;-72
2022/08/02 08:29:41;;;;;;;4.80;3.17;;;30.10;99.90;;;;;;4913959;29;20422;-71
2022/08/02 08:32:07;;;;;;;7.83;3.40;;;30.40;99.90;;;;;;4913028;29;20449;-70
2022/08/02 08:34:33;;;;;;;3.70;3.40;;;30.50;99.90;;;;;;4914348;29;20443;-71
2022/08/02 08:36:59;;;;;;;3.80;3.60;;;30.70;99.90;;;;;;4913983;29;20170;-71
2022/08/02 08:39:25;;;;;;;4.90;4.37;;;30.80;99.90;;;;;;4914048;29;20422;-71
2022/08/02 08:41:50;;;;;;;4.50;4.20;;;30.90;99.90;;;;;;4913513;29;20519;-71
2022/08/02 08:44:16;;;;;;;4.27;3.20;;;30.30;99.90;;;;;;4913874;29;20571;-70
2022/08/02 08:46:43;;;;;;;4.50;4.20;;;30.70;99.90;;;;;;4913846;29;20682;-70
2022/08/02 08:49:15;;;;;;;6.80;4.80;;;31.10;99.90;;;;;;4914204;29;20177;-71
2022/08/02 08:51:42;;;;;;;4.27;3.87;;;31.20;99.90;;;;;;4913253;29;20448;-70
2022/08/02 08:54:11;;;;;;;3.40;3.13;;;31.40;99.90;;;;;;4913984;29;20926;-71
2022/08/02 08:56:39;;;;;;;6.27;3.87;;;31.50;99.90;;;;;;4913732;29;20931;-71
2022/08/02 08:59:05;;;;;;;4.20;3.57;;;31.90;99.90;;;;;;4914328;29;20986;-71
2022/08/02 09:01:31;;;;;;;3.90;3.60;;;31.80;99.90;;;;;;4917253;29;20444;-71
2022/08/02 09:03:57;;;;;;;3.77;3.47;;;32.20;99.90;;;;;;4917645;29;20417;-71
2022/08/02 09:06:23;;;;;;;4.37;3.73;;;32.00;99.90;;;;;;4917023;29;20632;-71
2022/08/02 09:08:49;;;;;;;3.77;3.43;;;32.60;99.90;;;;;;4917868;29;20412;-72
2022/08/02 09:11:21;;;;;;;5.13;3.60;;;32.50;99.90;;;;;;4916695;29;20525;-70
2022/08/02 09:13:55;;;;;;;7.77;3.50;;;33.10;99.90;;;;;;4917777;29;20178;-71
2022/08/02 09:16:31;;;;;;;5.00;3.30;;;33.50;99.90;;;;;;4917352;29;20426;-69
2022/08/02 09:18:57;;;;;;;3.80;3.60;;;34.00;99.90;;;;;;4917719;29;20418;-71
2022/08/02 09:21:32;;;;;;;3.40;3.20;;;33.80;99.90;;;;;;4915976;29;20451;-71
2022/08/02 09:23:57;;;;;;;6.53;3.80;;;33.80;99.90;;;;;;4917332;29;20410;-71
2022/08/02 09:26:24;;;;;;;3.27;3.07;;;33.70;99.90;;;;;;4917591;29;20457;-71
2022/08/02 09:28:58;;;;;;;3.87;3.40;;;33.70;99.90;;;;;;4918155;29;20204;-72
2022/08/02 09:31:24;;;;;;;4.97;3.70;;;33.80;99.90;;;;;;4917056;29;20456;-71
2022/08/02 09:33:58;;;;;;;4.40;4.00;;;34.30;99.90;;;;;;4917723;29;20446;-71
2022/08/02 09:36:24;;;;;;;3.40;3.10;;;34.50;99.90;;;;;;4917796;29;20178;-71
2022/08/02 09:39:01;;;;;;;4.90;3.93;;;34.90;99.90;;;;;;4917682;29;20473;-71
2022/08/02 09:41:31;;;;;;;3.33;3.13;;;35.30;99.90;;;;;;4917245;29;20445;-71
2022/08/02 09:43:58;;;;;;;3.67;3.30;;;35.00;99.30;;;;;;4917617;29;20482;-71
2022/08/02 09:46:32;;;;;;;4.90;3.27;;;34.70;98.80;;;;;;4916983;29;20488;-71
2022/08/02 09:49:07;;;;;;;4.40;3.50;;;33.90;99.60;;;;;;4916984;29;20424;-71
2022/08/02 09:51:47;;;;;;;13.70;4.20;;;32.90;99.90;;;;;;4916371;29;20429;-71
2022/08/02 09:54:20;;;;;;;6.47;3.87;;;32.00;99.90;;;;;;4916270;29;20414;-70
2022/08/02 09:56:48;;;;;;;6.03;3.90;;;31.10;99.90;;;;;;4916810;29;20422;-70
2022/08/02 09:59:14;;;;;;;4.73;3.10;;;30.60;99.90;;;;;;4916650;29;20477;-71
2022/08/02 10:01:41;;;;;;;3.50;3.20;;;30.30;99.90;;;;;;4915944;29;20438;-71
2022/08/02 10:04:10;;;;;;;3.57;3.30;;;29.90;99.90;;;;;;4916616;29;20466;-71
2022/08/02 10:06:40;;;;;;;6.83;3.70;;;30.20;99.90;;;;;;4916744;29;20461;-70
2022/08/02 10:09:07;;;;;;;4.43;4.03;;;31.10;99.90;;;;;;4916013;29;20792;-71
2022/08/02 10:11:34;;;;;;;3.80;3.60;;;32.00;99.90;;;;;;4915313;29;20905;-71
2022/08/02 10:14:01;;;;;;;7.20;3.83;;;32.70;99.90;;;;;;4916432;29;20502;-73
2022/08/02 10:16:28;;;;;;;4.13;3.00;;;33.60;99.90;;;;;;4916521;29;20433;-72
2022/08/02 10:18:55;;;;;;;5.00;3.27;;;33.80;99.90;;;;;;4916430;29;20505;-71
2022/08/02 10:21:29;;;;;;;4.17;3.77;;;34.40;99.90;;;;;;4915534;29;20548;-69
2022/08/02 10:24:04;;;;;;;4.90;4.27;;;34.60;99.70;;;;;;4915920;29;20414;-72
2022/08/02 10:26:30;;;;;;;3.23;3.00;;;35.00;98.50;;;;;;4916444;29;20600;-72
2022/08/02 10:28:56;;;;;;;8.63;3.60;;;35.20;98.50;;;;;;4916258;29;20517;-71
2022/08/02 10:31:27;;;;;;;4.20;3.27;;;35.20;97.90;;;;;;4915306;29;20629;-71
2022/08/02 10:33:54;;;;;;;6.97;3.13;;;34.40;97.80;;;;;;4916136;29;20167;-72
2022/08/02 10:36:22;;;;;;;5.30;4.10;;;34.20;98.60;;;;;;4915712;29;20481;-72
2022/08/02 10:38:48;;;;;;;3.73;3.43;;;34.20;98.20;;;;;;4916190;29;20785;-70
2022/08/02 10:41:13;;;;;;;7.60;3.60;;;34.20;98.00;;;;;;4915749;29;20430;-71
2022/08/02 10:43:42;;;;;;;3.03;2.93;;;34.70;97.10;;;;;;4915997;29;20602;-71
2022/08/02 10:46:26;;;;;;;3.63;3.43;;;35.10;97.00;;;;;;4915893;29;20210;-71
2022/08/02 10:49:07;;;;;;;4.03;3.40;;;35.30;96.70;;;;;;4916065;29;20835;-71
2022/08/02 10:51:57;;;;;;;3.83;3.37;;;35.50;95.40;;;;;;4914791;29;20430;-71
2022/08/02 10:54:29;;;;;;;4.67;4.27;;;35.60;95.40;;;;;;4915571;29;20418;-71
2022/08/02 10:56:57;;;;;;;3.97;3.70;;;35.80;94.20;;;;;;4915945;29;20406;-71
2022/08/02 10:59:40;;;;;;;4.73;3.10;;;36.00;94.10;;;;;;4915698;29;20418;-70
2022/08/02 11:02:06;;;;;;;3.20;3.10;;;36.40;94.00;;;;;;4914742;29;20812;-71
2022/08/02 11:04:32;;;;;;;7.20;5.97;;;36.00;93.20;;;;;;4915276;29;20418;-71
2022/08/02 11:07:22;;;;;;;3.57;3.37;;;35.80;93.50;;;;;;4915628;29;20678;-71
2022/08/02 11:09:49;;;;;;;5.33;3.47;;;35.70;93.30;;;;;;4915700;29;20647;-71
2022/08/02 11:12:18;;;;;;;4.50;4.07;;;35.80;93.10;;;;;;4914709;29;20426;-72
2022/08/02 11:15:03;;;;;;;10.33;7.80;;;35.90;93.00;;;;;;4915217;29;20406;-71
2022/08/02 11:17:52;;;;;;;6.50;5.90;;;34.90;92.10;;;;;;4915518;29;20418;-72
2022/08/02 11:20:19;;;;;;;4.57;4.17;;;32.90;93.90;;;;;;4915112;29;20425;-72
2022/08/02 11:22:46;;;;;;;7.73;7.00;;;32.00;95.00;;;;;;4913475;29;20434;-70
2022/08/02 11:25:23;;;;;;;4.77;3.67;;;31.40;95.40;;;;;;4914650;29;20461;-71
2022/08/02 11:27:53;;;;;;;3.80;3.60;;;31.30;96.00;;;;;;4915263;29;20469;-70
2022/08/02 11:30:20;;;;;;;6.30;5.70;;;31.30;96.20;;;;;;4914800;29;20486;-71
2022/08/02 11:32:47;;;;;;;4.10;3.90;;;31.50;96.90;;;;;;4914342;29;20442;-70
2022/08/02 11:35:13;;;;;;;3.27;3.07;;;31.60;97.20;;;;;;4914935;29;20433;-71
2022/08/02 11:37:41;;;;;;;3.67;3.27;;;32.10;97.00;;;;;;4914637;29;20924;-72
2022/08/02 11:40:08;;;;;;;3.37;3.07;;;32.70;95.70;;;;;;4914814;29;20761;-71
2022/08/02 11:42:37;;;;;;;2.90;2.30;;;33.00;96.00;;;;;;4914354;29;20430;-71
2022/08/02 11:45:07;;;;;;;3.67;3.47;;;33.20;96.80;;;;;;4914718;29;20485;-69
2022/08/02 11:47:53;;;;;;;3.57;3.27;;;33.60;95.20;;;;;;4914798;29;20572;-72
2022/08/02 11:50:23;;;;;;;2.93;2.77;;;33.70;94.00;;;;;;4914695;29;20821;-72
2022/08/02 11:52:52;;;;;;;3.40;3.17;;;33.70;94.80;;;;;;4914327;29;20454;-72
2022/08/02 11:55:24;;;;;;;2.67;2.57;;;33.60;94.80;;;;;;4914725;29;20449;-72
2022/08/02 11:57:57;;;;;;;2.90;2.70;;;33.90;94.90;;;;;;4914597;29;20501;-72
2022/08/02 12:00:22;;;;;;;3.20;2.57;;;33.90;93.20;;;;;;4914226;29;20911;-71
2022/08/02 12:02:48;;;;;;;3.30;3.10;;;33.70;93.10;;;;;;4914163;29;20440;-73
2022/08/02 12:05:19;;;;;;;3.27;3.00;;;33.70;93.30;;;;;;4914003;29;20304;-72
2022/08/02 12:07:45;;;;;;;3.03;2.83;;;33.50;93.30;;;;;;4914993;29;20185;-73
2022/08/02 12:10:17;;;;;;;3.33;3.13;;;32.90;93.90;;;;;;4914313;29;20421;-73
2022/08/02 12:12:55;;;;;;;3.43;3.23;;;32.70;93.90;;;;;;4913247;29;20660;-71
2022/08/02 12:15:29;;;;;;;3.03;2.73;;;32.40;94.40;;;;;;4914404;29;20475;-72
2022/08/02 12:20:40;;;;;;;3.13;2.93;;;31.70;95.00;;;;;;4913781;29;20527;-72
2022/08/02 12:23:05;;;;;;;3.50;3.30;;;31.20;95.20;;;;;;4913394;29;20489;-71
2022/08/02 12:25:31;;;;;;;3.40;3.10;;;30.80;95.20;;;;;;4914597;29;20414;-73
2022/08/02 12:28:13;;;;;;;3.60;3.00;;;30.40;95.60;;;;;;4915357;29;20178;-72
2022/08/02 12:30:53;;;;;;;3.40;3.30;;;30.50;96.50;;;;;;4914026;29;20185;-71
2022/08/02 12:33:20;;;;;;;6.37;3.20;;;30.80;95.70;;;;;;4913628;29;20771;-73
2022/08/02 12:35:46;;;;;;;3.87;2.90;;;30.90;96.10;;;;;;4914340;29;20410;-72
2022/08/02 12:38:12;;;;;;;2.63;2.40;;;31.20;95.10;;;;;;4914124;29;20946;-72
2022/08/02 12:40:37;;;;;;;3.20;3.00;;;31.30;95.30;;;;;;4913868;29;20265;-72
2022/08/02 12:43:05;;;;;;;2.70;2.23;;;31.30;94.50;;;;;;4912943;29;20249;-71
2022/08/02 12:45:43;;;;;;;2.70;2.50;;;31.30;94.80;;;;;;4914380;29;20198;-72
2022/08/02 12:48:09;;;;;;;2.93;2.73;;;31.30;94.00;;;;;;4913385;29;20465;-72
2022/08/02 12:50:38;;;;;;;2.77;2.40;;;31.30;94.10;;;;;;4913615;29;20835;-74
2022/08/02 12:53:08;;;;;;;3.33;2.83;;;31.00;94.50;;;;;;4914455;29;20624;-73
2022/08/02 12:55:37;;;;;;;3.57;3.37;;;30.70;94.70;;;;;;4916078;29;20422;-74
2022/08/02 12:58:07;;;;;;;3.00;2.90;;;30.40;95.10;;;;;;4861222;29;20760;-73
2022/08/02 13:00:39;;;;;;;2.77;2.53;;;30.10;94.90;;;;;;4805302;29;20836;-76
2022/08/02 13:03:12;;;;;;;2.70;2.60;;;29.70;94.80;;;;;;4804063;29;20954;-77
2022/08/02 13:05:38;;;;;;;13.80;2.70;;;29.40;95.00;;;;;;4819470;29;20639;-74
2022/08/02 13:08:04;;;;;;;4.37;2.80;;;29.40;95.50;;;;;;4928164;29;20462;-75
2022/08/02 13:10:30;;;;;;;2.30;2.20;;;29.50;95.60;;;;;;4931357;29;20464;-75
2022/08/02 13:12:55;;;;;;;2.40;2.30;;;29.60;95.50;;;;;;4931148;29;20454;-75
2022/08/02 13:15:21;;;;;;;4.90;2.83;;;29.50;95.40;;;;;;4931583;29;20205;-75
2022/08/02 13:17:47;;;;;;;2.90;2.70;;;29.60;95.80;;;;;;4930459;29;20249;-75
2022/08/02 13:20:15;;;;;;;2.50;2.40;;;29.50;95.50;;;;;;4930736;29;20463;-74
2022/08/02 13:22:41;;;;;;;2.53;2.43;;;29.40;95.20;;;;;;4930878;29;20221;-74
2022/08/02 13:25:07;;;;;;;2.40;2.30;;;29.40;94.90;;;;;;4931362;29;21050;-76
2022/08/02 13:27:33;;;;;;;2.37;2.17;;;29.50;94.60;;;;;;4931080;29;20288;-75
2022/08/02 13:30:00;;;;;;;2.43;2.33;;;29.60;94.80;;;;;;4931418;29;20434;-75
2022/08/02 13:32:29;;;;;;;11.03;2.73;;;29.70;94.60;;;;;;4930500;29;20480;-75
2022/08/02 13:34:56;;;;;;;2.67;2.57;;;29.90;94.30;;;;;;4931328;29;20441;-75
2022/08/02 13:37:22;;;;;;;7.27;2.27;;;30.00;94.00;;;;;;4931280;29;20474;-75
2022/08/02 13:39:48;;;;;;;2.53;2.13;;;30.20;94.00;;;;;;4931918;29;20873;-75
2022/08/02 13:42:14;;;;;;;2.87;2.23;;;30.20;93.70;;;;;;4929107;29;20540;-75
2022/08/02 13:44:39;;;;;;;2.60;2.40;;;30.20;93.80;;;;;;4932199;29;20216;-75
2022/08/02 13:47:05;;;;;;;3.67;2.10;;;30.30;95.10;;;;;;4932885;29;20213;-75
2022/08/02 13:49:30;;;;;;;2.63;2.53;;;30.50;94.50;;;;;;4934853;29;20537;-74
2022/08/02 13:51:56;;;;;;;4.00;2.90;;;30.60;94.10;;;;;;4934482;29;20693;-75
2022/08/02 13:54:21;;;;;;;2.50;2.30;;;30.60;93.90;;;;;;4934478;29;20217;-76
2022/08/02 13:56:47;;;;;;;3.07;2.87;;;30.60;94.00;;;;;;4934403;29;20205;-75
2022/08/02 13:59:12;;;;;;;2.43;2.23;;;30.70;93.20;;;;;;4934261;29;20312;-75
2022/08/02 14:01:38;;;;;;;2.90;2.20;;;30.70;93.50;;;;;;4933684;29;20208;-75
2022/08/02 14:04:04;;;;;;;2.70;2.00;;;30.80;93.20;;;;;;4934559;29;20715;-75
2022/08/02 14:06:29;;;;;;;2.50;2.30;;;30.70;93.00;;;;;;4934861;29;20311;-75
2022/08/02 14:08:55;;;;;;;3.07;2.77;;;30.80;93.00;;;;;;4934519;29;20233;-75
2022/08/02 14:11:21;;;;;;;2.20;2.10;;;30.90;92.30;;;;;;4933196;29;20205;-75
2022/08/02 14:13:46;;;;;;;2.83;2.13;;;30.90;92.10;;;;;;4933657;29;20256;-75
2022/08/02 14:16:12;;;;;;;2.80;1.90;;;30.90;92.90;;;;;;4934518;29;20243;-75
2022/08/02 14:18:38;;;;;;;2.80;1.83;;;30.70;92.40;;;;;;4932987;29;20686;-75
2022/08/02 14:21:03;;;;;;;2.70;2.50;;;30.70;93.00;;;;;;4933518;29;20197;-75
2022/08/02 14:23:30;;;;;;;2.40;2.20;;;30.80;93.50;;;;;;4934817;29;20221;-76
2022/08/02 14:25:57;;;;;;;3.03;1.53;;;30.80;92.60;;;;;;4934732;29;20201;-75